Time;durP1;ratioP1;P1;durP2;ratioP2;P2;SDS_P1;SDS_P2;PMS_P1;PMS_P2;Temp;Humidity;BMP_temperature;BMP_pressure;BME280_temperature;BME280_humidity;BME280_pressure;Samples;Min_cycle;Max_cycle;Signal;HPM_P1;HPM_P2
2023/06/24 00:00:55;;;;;;;4.03;2.60;;;;;;;16.97;100.00;102124.69;6275147;28;20049;-73
2023/06/24 00:03:56;;;;;;;4.18;2.80;;;;;;;16.95;100.00;102129.25;6271790;28;20044;-73
2023/06/24 00:07:00;;;;;;;3.70;2.75;;;;;;;16.94;100.00;102135.47;6275649;28;20046;-73
2023/06/24 00:10:03;;;;;;;4.22;2.67;;;;;;;16.81;100.00;102138.03;6275466;28;20151;-73
2023/06/24 00:13:04;;;;;;;3.50;2.53;;;;;;;16.82;100.00;102142.38;6274965;28;20052;-73
2023/06/24 00:16:06;;;;;;;6.03;2.60;;;;;;;16.77;100.00;102143.59;6275411;28;20048;-73
2023/06/24 00:19:08;;;;;;;5.97;3.00;;;;;;;16.72;100.00;102136.75;6275597;28;20068;-73
2023/06/24 00:22:10;;;;;;;6.35;2.80;;;;;;;16.71;100.00;102147.38;6274534;28;20045;-73
2023/06/24 00:25:12;;;;;;;3.63;2.47;;;;;;;16.68;100.00;102145.78;6275028;28;20133;-73
2023/06/24 00:28:13;;;;;;;5.00;2.85;;;;;;;16.71;100.00;102148.28;6275111;28;20045;-73
2023/06/24 00:31:15;;;;;;;5.13;2.83;;;;;;;16.68;100.00;102139.63;6274674;28;20045;-73
2023/06/24 00:34:19;;;;;;;4.32;2.72;;;;;;;16.56;100.00;102142.97;6250894;28;20072;-73
2023/06/24 00:37:22;;;;;;;5.55;2.63;;;;;;;16.44;100.00;102144.50;6249922;28;20054;-73
2023/06/24 00:40:23;;;;;;;5.50;3.13;;;;;;;16.35;100.00;102135.28;6249812;28;20438;-73
2023/06/24 00:43:25;;;;;;;5.85;3.10;;;;;;;16.31;100.00;102135.53;6250010;28;20054;-73
2023/06/24 00:46:26;;;;;;;5.22;3.38;;;;;;;16.26;100.00;102142.84;6250016;28;20049;-73
2023/06/24 00:49:28;;;;;;;5.43;3.50;;;;;;;16.22;100.00;102142.19;6250139;28;20049;-73
2023/06/24 00:52:31;;;;;;;6.00;3.40;;;;;;;16.28;100.00;102133.88;6249655;28;20050;-73
2023/06/24 00:55:32;;;;;;;6.53;3.90;;;;;;;16.26;100.00;102138.44;6250008;28;20049;-73
2023/06/24 00:58:36;;;;;;;5.78;3.30;;;;;;;16.24;100.00;102145.59;6250046;28;20327;-73
2023/06/24 01:01:38;;;;;;;6.18;3.42;;;;;;;16.22;100.00;102137.75;6249094;28;20130;-73
2023/06/24 01:04:40;;;;;;;8.65;3.13;;;;;;;16.17;100.00;102141.59;6269306;28;20048;-73
2023/06/24 01:07:44;;;;;;;4.25;3.05;;;;;;;16.11;100.00;102139.25;6274736;28;20051;-73
2023/06/24 01:10:45;;;;;;;5.30;3.42;;;;;;;16.07;100.00;102146.50;6273891;28;20124;-73
2023/06/24 01:13:46;;;;;;;3.72;3.00;;;;;;;16.06;100.00;102138.66;6274614;28;20041;-73
2023/06/24 01:16:57;;;;;;;7.45;3.53;;;;;;;16.03;100.00;102149.41;6274489;28;20045;-73
2023/06/24 01:20:07;;;;;;;6.45;3.72;;;;;;;15.98;100.00;102147.00;6274551;28;20072;-73
2023/06/24 01:23:42;;;;;;;7.20;3.60;;;;;;;15.91;100.00;102162.41;6258897;28;20049;-73
2023/06/24 01:27:04;;;;;;;6.60;3.50;;;;;;;15.85;100.00;102157.44;6249731;28;20045;-73
2023/06/24 01:30:30;;;;;;;7.50;3.60;;;;;;;15.78;100.00;102155.19;6249866;28;20056;-73
2023/06/24 01:33:39;;;;;;;5.43;3.28;;;;;;;15.67;100.00;102150.44;6246807;28;20052;-73
2023/06/24 01:36:44;;;;;;;5.75;3.95;;;;;;;15.67;100.00;102151.31;6252592;28;20049;-73
2023/06/24 01:39:48;;;;;;;6.05;3.47;;;;;;;15.64;100.00;102148.81;6274311;28;20049;-73
2023/06/24 01:42:50;;;;;;;5.32;3.17;;;;;;;15.63;100.00;102151.50;6257154;28;20057;-73
2023/06/24 01:45:55;;;;;;;8.25;3.30;;;;;;;15.55;100.00;102156.34;6253295;28;20401;-73
2023/06/24 01:49:02;;;;;;;5.95;3.95;;;;;;;15.48;100.00;102158.44;6251599;28;20046;-73
2023/06/24 01:52:05;;;;;;;5.65;2.85;;;;;;;15.41;100.00;102159.69;6253229;28;20052;-73
2023/06/24 01:55:10;;;;;;;8.25;3.40;;;;;;;15.47;100.00;102159.38;6253818;28;20049;-73
2023/06/24 01:58:14;;;;;;;4.78;3.25;;;;;;;15.45;100.00;102156.81;6253617;28;20056;-73
2023/06/24 02:01:16;;;;;;;4.45;3.30;;;;;;;16.30;100.00;102160.31;6253099;28;20055;-73
2023/06/24 02:04:20;;;;;;;7.97;3.78;;;;;;;16.13;100.00;102154.16;6253082;28;20327;-73
2023/06/24 02:07:23;;;;;;;6.43;3.88;;;;;;;16.22;100.00;102160.75;6253347;28;20080;-73
2023/06/24 02:10:25;;;;;;;9.55;3.75;;;;;;;16.24;100.00;102161.53;6252772;28;20065;-73
2023/06/24 02:13:27;;;;;;;6.65;4.18;;;;;;;16.15;100.00;102159.38;6254133;28;20343;-73
2023/06/24 02:16:30;;;;;;;4.63;3.42;;;;;;;16.03;100.00;102163.53;6253319;28;20457;-73
2023/06/24 02:19:33;;;;;;;4.28;3.45;;;;;;;16.06;100.00;102163.38;6254703;28;20053;-73
2023/06/24 02:22:36;;;;;;;5.00;4.00;;;;;;;16.07;100.00;102157.13;6275339;28;20460;-73
2023/06/24 02:25:39;;;;;;;8.02;4.18;;;;;;;16.04;100.00;102157.31;6252885;28;20049;-73
2023/06/24 02:28:42;;;;;;;7.25;3.67;;;;;;;16.13;100.00;102162.09;6253040;28;20050;-73
2023/06/24 02:31:43;;;;;;;6.07;3.78;;;;;;;15.70;100.00;102156.41;6255305;28;20434;-73
2023/06/24 02:34:47;;;;;;;6.32;3.83;;;;;;;15.61;100.00;102164.81;6267838;28;20071;-73
2023/06/24 02:37:48;;;;;;;9.63;3.83;;;;;;;15.70;100.00;102161.72;6277480;28;20041;-73
2023/06/24 02:40:50;;;;;;;8.25;4.53;;;;;;;15.45;100.00;102167.41;6276840;28;20049;-73
2023/06/24 02:43:51;;;;;;;8.15;4.65;;;;;;;15.40;100.00;102163.28;6277229;28;20041;-73
2023/06/24 02:46:55;;;;;;;15.27;4.90;;;;;;;15.22;100.00;102158.00;6260412;28;20041;-73
2023/06/24 02:49:58;;;;;;;7.93;4.07;;;;;;;15.14;100.00;102168.09;6252466;28;20429;-73
2023/06/24 02:53:00;;;;;;;8.52;4.15;;;;;;;15.14;100.00;102168.09;6257204;28;20338;-73
2023/06/24 02:56:03;;;;;;;5.95;3.97;;;;;;;15.28;100.00;102169.19;6261020;28;20061;-73
2023/06/24 02:59:04;;;;;;;6.45;4.47;;;;;;;15.24;100.00;102171.13;6252290;28;20558;-73
2023/06/24 03:02:06;;;;;;;8.60;4.25;;;;;;;15.23;100.00;102180.03;6251935;28;20056;-73
2023/06/24 03:05:10;;;;;;;6.88;4.43;;;;;;;15.25;100.00;102175.50;6270163;28;20049;-73
2023/06/24 03:08:12;;;;;;;6.78;4.00;;;;;;;15.18;100.00;102174.09;6276418;28;20052;-73
2023/06/24 03:11:14;;;;;;;8.95;4.65;;;;;;;15.25;100.00;102172.84;6252509;28;20052;-73
2023/06/24 03:14:15;;;;;;;7.80;4.38;;;;;;;15.13;100.00;102176.13;6251795;28;20107;-73
2023/06/24 03:17:17;;;;;;;6.88;4.10;;;;;;;15.09;100.00;102178.06;6267710;28;20056;-73
2023/06/24 03:20:20;;;;;;;9.27;5.00;;;;;;;15.14;100.00;102178.69;6276273;28;20362;-73
2023/06/24 03:23:22;;;;;;;9.50;5.55;;;;;;;15.20;100.00;102183.66;6276448;28;20059;-73
2023/06/24 03:26:23;;;;;;;7.57;4.53;;;;;;;15.19;100.00;102179.31;6276470;28;20049;-73
2023/06/24 03:29:24;;;;;;;8.05;4.00;;;;;;;15.16;100.00;102187.41;6276200;28;20056;-73
2023/06/24 03:32:26;;;;;;;10.23;5.30;;;;;;;15.00;100.00;102185.59;6275677;28;20068;-73
2023/06/24 03:35:29;;;;;;;7.50;4.68;;;;;;;14.98;100.00;102189.16;6268351;28;20045;-73
2023/06/24 03:38:31;;;;;;;9.20;4.72;;;;;;;15.01;100.00;102185.53;6276375;28;20052;-73
2023/06/24 03:41:33;;;;;;;8.93;4.90;;;;;;;15.11;100.00;102188.56;6275302;28;20068;-74
2023/06/24 03:44:34;;;;;;;9.23;5.32;;;;;;;15.18;100.00;102193.50;6275713;28;20365;-73
2023/06/24 03:47:35;;;;;;;6.50;4.07;;;;;;;15.19;100.00;102197.84;6272594;28;20296;-73
2023/06/24 03:50:38;;;;;;;7.15;4.10;;;;;;;15.16;100.00;102198.00;6271725;28;20045;-73
2023/06/24 03:53:39;;;;;;;9.63;4.68;;;;;;;15.13;100.00;102186.72;6275650;28;20063;-73
2023/06/24 03:56:41;;;;;;;9.30;4.93;;;;;;;15.19;100.00;102194.34;6275593;28;20214;-73
2023/06/24 03:59:42;;;;;;;8.95;4.72;;;;;;;15.27;100.00;102192.19;6275565;28;20464;-73
2023/06/24 04:02:45;;;;;;;8.27;4.35;;;;;;;15.25;100.00;102193.19;6270802;28;20051;-73
2023/06/24 04:05:47;;;;;;;8.90;5.00;;;;;;;15.39;100.00;102201.28;6263369;28;20055;-73
2023/06/24 04:08:51;;;;;;;10.27;5.25;;;;;;;15.40;100.00;102195.94;6259231;28;20346;-73
2023/06/24 04:11:53;;;;;;;7.10;4.40;;;;;;;15.50;100.00;102198.97;6266567;28;20044;-73
2023/06/24 04:14:54;;;;;;;13.55;5.43;;;;;;;15.38;100.00;102211.03;6271561;28;20049;-73
2023/06/24 04:17:55;;;;;;;12.45;6.07;;;;;;;15.41;100.00;102208.25;6271540;28;20050;-73
2023/06/24 04:20:58;;;;;;;8.90;5.00;;;;;;;15.61;100.00;102222.25;6270850;28;20048;-73
2023/06/24 04:23:59;;;;;;;15.40;6.18;;;;;;;15.23;100.00;102217.97;6270820;28;20552;-73
2023/06/24 04:27:01;;;;;;;11.57;6.53;;;;;;;15.22;100.00;102218.03;6270919;28;20073;-73
2023/06/24 04:30:03;;;;;;;15.57;5.90;;;;;;;15.20;100.00;102223.41;6271243;28;20377;-72
2023/06/24 04:33:05;;;;;;;10.73;5.85;;;;;;;15.50;100.00;102221.97;6270644;28;20053;-73
2023/06/24 04:36:07;;;;;;;14.43;6.57;;;;;;;15.37;100.00;102214.63;6261873;28;20436;-73
2023/06/24 04:39:09;;;;;;;9.70;5.07;;;;;;;15.43;100.00;102218.75;6270984;28;20048;-73
2023/06/24 04:42:10;;;;;;;7.18;4.07;;;;;;;15.55;100.00;102219.94;6269763;28;20063;-73
2023/06/24 04:45:12;;;;;;;9.60;4.85;;;;;;;15.60;100.00;102218.75;6247901;28;20473;-73
2023/06/24 04:48:13;;;;;;;8.32;4.90;;;;;;;15.56;100.00;102224.28;6250137;28;20049;-73
2023/06/24 04:51:16;;;;;;;8.90;5.05;;;;;;;15.58;100.00;102219.75;6249712;28;20060;-73
2023/06/24 04:54:17;;;;;;;8.32;5.28;;;;;;;15.58;100.00;102218.00;6249982;28;20493;-73
2023/06/24 04:57:27;;;;;;;10.65;5.68;;;;;;;15.62;100.00;102216.03;6250053;28;20052;-73
2023/06/24 05:00:28;;;;;;;14.45;7.38;;;;;;;15.61;100.00;102216.97;6249430;28;20076;-73
2023/06/24 05:03:30;;;;;;;10.90;5.55;;;;;;;15.53;100.00;102217.34;6249540;28;20461;-73
2023/06/24 05:06:32;;;;;;;11.32;6.25;;;;;;;15.59;100.00;102217.06;6250101;28;20049;-73
2023/06/24 05:09:37;;;;;;;12.80;5.95;;;;;;;15.70;100.00;102222.69;6249944;28;20046;-73
2023/06/24 05:12:38;;;;;;;10.77;5.28;;;;;;;15.83;100.00;102216.75;6249220;28;20366;-73
2023/06/24 05:15:40;;;;;;;6.97;4.30;;;;;;;15.78;100.00;102222.28;6252314;28;20064;-73
2023/06/24 05:18:41;;;;;;;8.98;5.03;;;;;;;15.71;100.00;102216.47;6274715;28;20059;-73
2023/06/24 05:21:44;;;;;;;14.80;5.38;;;;;;;15.84;100.00;102213.16;6274126;28;20056;-73
2023/06/24 05:24:45;;;;;;;14.13;5.85;;;;;;;15.90;100.00;102207.56;6279400;28;20120;-73
2023/06/24 05:27:47;;;;;;;10.93;5.70;;;;;;;15.92;100.00;102210.97;6279137;28;20072;-73
2023/06/24 05:30:48;;;;;;;11.18;5.97;;;;;;;15.97;100.00;102214.25;6278611;28;20040;-73
2023/06/24 05:33:49;;;;;;;8.65;5.47;;;;;;;15.95;100.00;102208.19;6275893;28;20073;-74
2023/06/24 05:36:52;;;;;;;13.05;6.93;;;;;;;15.93;100.00;102213.53;6279260;28;20048;-73
2023/06/24 05:39:53;;;;;;;13.85;6.18;;;;;;;16.01;100.00;102215.78;6278984;28;20047;-73
2023/06/24 05:42:55;;;;;;;9.57;5.72;;;;;;;16.16;100.00;102212.31;6278296;28;20052;-73
2023/06/24 05:45:56;;;;;;;11.05;6.90;;;;;;;16.22;100.00;102203.19;6278903;28;20053;-73
2023/06/24 05:48:57;;;;;;;13.43;7.10;;;;;;;16.32;100.00;102198.25;6278599;28;20052;-73
2023/06/24 05:52:00;;;;;;;8.02;5.25;;;;;;;16.43;100.00;102201.16;6278126;28;20045;-73
2023/06/24 05:55:01;;;;;;;10.13;5.18;;;;;;;16.56;100.00;102210.16;6278402;28;20049;-73
2023/06/24 05:58:03;;;;;;;11.15;6.63;;;;;;;16.72;100.00;102212.88;6278685;28;20060;-73
2023/06/24 06:01:04;;;;;;;18.30;7.50;;;;;;;16.54;100.00;102200.59;6277713;28;20353;-73
2023/06/24 06:04:05;;;;;;;14.25;7.03;;;;;;;16.63;100.00;102200.94;6267863;28;20045;-73
2023/06/24 06:07:08;;;;;;;11.93;6.22;;;;;;;16.55;100.00;102197.00;6253596;28;20057;-73
2023/06/24 06:10:10;;;;;;;11.23;5.60;;;;;;;16.62;100.00;102196.56;6253346;28;20046;-73
2023/06/24 06:13:12;;;;;;;8.73;4.13;;;;;;;16.66;100.00;102197.25;6268016;28;20445;-73
2023/06/24 06:16:13;;;;;;;8.90;4.90;;;;;;;16.72;100.00;102195.16;6278037;28;20055;-73
2023/06/24 06:19:14;;;;;;;14.27;6.85;;;;;;;16.66;100.00;102194.59;6254360;28;20045;-73
2023/06/24 06:22:17;;;;;;;10.13;5.68;;;;;;;16.74;100.00;102203.00;6252622;28;20438;-73
2023/06/24 06:25:19;;;;;;;9.40;5.35;;;;;;;16.79;100.00;102208.06;6253284;28;20065;-73
2023/06/24 06:28:20;;;;;;;14.35;6.63;;;;;;;16.74;100.00;102208.31;6253029;28;20049;-73
2023/06/24 06:31:22;;;;;;;11.30;5.60;;;;;;;16.66;100.00;102205.19;6252798;28;20057;-73
2023/06/24 06:34:24;;;;;;;9.18;4.53;;;;;;;16.77;100.00;102194.03;6252179;28;20049;-73
2023/06/24 06:37:26;;;;;;;10.63;5.90;;;;;;;16.81;100.00;102204.41;6252982;28;20050;-73
2023/06/24 06:40:28;;;;;;;10.23;5.10;;;;;;;16.90;100.00;102203.88;6252317;28;20212;-73
2023/06/24 06:43:29;;;;;;;9.90;5.82;;;;;;;16.89;100.00;102194.16;6252509;28;20057;-73
2023/06/24 06:46:31;;;;;;;8.75;4.68;;;;;;;16.93;100.00;102189.56;6252780;28;20049;-73
2023/06/24 06:49:32;;;;;;;7.13;4.55;;;;;;;17.01;100.00;102197.09;6252470;28;20548;-73
2023/06/24 06:52:35;;;;;;;6.63;3.90;;;;;;;17.10;100.00;102199.22;6251733;28;20143;-73
2023/06/24 06:55:39;;;;;;;7.15;3.92;;;;;;;17.07;100.00;102204.69;6252514;28;20049;-73
2023/06/24 06:58:40;;;;;;;6.10;3.63;;;;;;;17.10;100.00;102199.22;6252787;28;20067;-73
2023/06/24 07:01:41;;;;;;;6.30;3.47;;;;;;;17.22;100.00;102219.78;6251704;28;20053;-73
2023/06/24 07:04:43;;;;;;;7.30;3.88;;;;;;;17.32;100.00;102222.75;6252124;28;20072;-73
2023/06/24 07:07:45;;;;;;;6.78;4.18;;;;;;;17.29;100.00;102226.44;6252072;28;20446;-73
2023/06/24 07:10:47;;;;;;;5.53;3.40;;;;;;;17.39;100.00;102230.25;6251432;28;20045;-73
2023/06/24 07:13:50;;;;;;;6.60;3.65;;;;;;;17.48;100.00;102239.50;6255586;28;20048;-73
2023/06/24 07:16:52;;;;;;;9.77;4.22;;;;;;;17.50;100.00;102235.81;6276500;28;20127;-73
2023/06/24 07:19:53;;;;;;;8.70;4.50;;;;;;;17.54;100.00;102241.81;6276733;28;20048;-73
2023/06/24 07:22:56;;;;;;;7.20;4.38;;;;;;;17.59;100.00;102242.41;6275791;28;20056;-73
2023/06/24 07:25:57;;;;;;;7.97;4.30;;;;;;;17.65;100.00;102241.16;6276458;28;20056;-73
2023/06/24 07:28:59;;;;;;;11.15;5.45;;;;;;;17.72;100.00;102240.72;6276221;28;20060;-73
2023/06/24 07:32:00;;;;;;;13.07;6.00;;;;;;;17.76;100.00;102236.13;6275819;28;20501;-73
2023/06/24 07:35:02;;;;;;;12.65;5.07;;;;;;;17.75;100.00;102243.22;6269399;28;20048;-73
2023/06/24 07:38:04;;;;;;;7.35;3.33;;;;;;;17.77;100.00;102244.94;6276357;28;20453;-72
2023/06/24 07:41:06;;;;;;;3.97;2.78;;;;;;;17.82;100.00;102243.72;6261106;28;20045;-72
2023/06/24 07:44:07;;;;;;;5.18;2.63;;;;;;;17.84;100.00;102244.47;6251239;28;20049;-73
2023/06/24 07:47:08;;;;;;;5.90;2.83;;;;;;;18.02;100.00;102242.50;6250374;28;20046;-73
2023/06/24 07:50:10;;;;;;;4.18;2.47;;;;;;;18.17;100.00;102236.25;6250960;28;20068;-73
2023/06/24 07:53:13;;;;;;;5.65;2.55;;;;;;;18.33;100.00;102236.16;6250471;28;20187;-73
2023/06/24 07:56:15;;;;;;;7.13;3.28;;;;;;;18.40;100.00;102244.63;6251041;28;20056;-73
2023/06/24 07:59:16;;;;;;;10.88;4.25;;;;;;;18.48;100.00;102245.84;6266743;28;20041;-73
2023/06/24 08:02:17;;;;;;;6.78;3.50;;;;;;;18.36;100.00;102235.13;6274819;28;20353;-73
2023/06/24 08:05:20;;;;;;;5.68;3.63;;;;;;;18.31;100.00;102230.09;6251640;28;20045;-73
2023/06/24 08:08:23;;;;;;;5.03;3.20;;;;;;;18.31;100.00;102232.75;6258782;28;20045;-73
2023/06/24 08:11:24;;;;;;;5.97;3.70;;;;;;;18.36;100.00;102229.78;6242349;28;20064;-73
2023/06/24 08:14:25;;;;;;;7.90;3.88;;;;;;;18.50;100.00;102230.63;6267697;28;20143;-73
2023/06/24 08:17:27;;;;;;;6.85;3.58;;;;;;;18.50;100.00;102227.13;6275211;28;20056;-73
2023/06/24 08:20:28;;;;;;;6.97;3.50;;;;;;;18.62;100.00;102222.81;6265612;28;20045;-73
2023/06/24 08:23:31;;;;;;;14.35;4.10;;;;;;;18.62;100.00;102225.47;6250465;28;20049;-73
2023/06/24 08:26:32;;;;;;;11.75;4.38;;;;;;;18.62;100.00;102229.00;6250591;28;20053;-73
2023/06/24 08:29:33;;;;;;;6.03;3.40;;;;;;;18.62;100.00;102229.00;6250414;28;20041;-73
2023/06/24 08:32:34;;;;;;;6.43;3.30;;;;;;;18.69;100.00;102217.03;6249541;28;20052;-73
2023/06/24 08:35:36;;;;;;;6.30;3.40;;;;;;;18.69;100.00;102224.16;6250264;28;20053;-73
2023/06/24 08:38:38;;;;;;;5.18;3.00;;;;;;;18.66;100.00;102225.19;6260735;28;20049;-73
2023/06/24 08:41:40;;;;;;;5.47;2.83;;;;;;;18.74;100.00;102220.25;6274397;28;20049;-73
2023/06/24 08:44:41;;;;;;;5.93;3.28;;;;;;;18.79;100.00;102217.28;6274978;28;20052;-73
2023/06/24 08:47:44;;;;;;;5.97;3.15;;;;;;;18.86;100.00;102212.44;6274918;28;20068;-73
2023/06/24 08:50:51;;;;;;;3.90;2.92;;;;;;;18.88;100.00;102216.69;6274325;28;20045;-73
2023/06/24 08:53:54;;;;;;;6.57;3.47;;;;;;;18.93;100.00;102213.72;6274979;28;20468;-72
2023/06/24 08:56:56;;;;;;;7.43;3.47;;;;;;;18.97;100.00;102223.25;6267428;28;20049;-73
2023/06/24 08:59:57;;;;;;;4.93;2.78;;;;;;;18.99;100.00;102216.00;6279894;28;20068;-73
2023/06/24 09:02:59;;;;;;;4.22;2.95;;;;;;;19.00;100.00;102212.38;6275796;28;20059;-73
2023/06/24 09:06:00;;;;;;;4.57;2.70;;;;;;;19.15;100.00;102208.69;6279788;28;20056;-72
2023/06/24 09:09:03;;;;;;;9.05;3.38;;;;;;;19.32;100.00;102204.06;6279575;28;20052;-73
2023/06/24 09:12:10;;;;;;;4.45;2.55;;;;;;;19.36;100.00;102209.09;6256763;28;20045;-73
2023/06/24 09:15:15;;;;;;;5.00;3.40;;;;;;;19.43;100.00;102206.84;6254665;28;20053;-73
2023/06/24 09:18:17;;;;;;;4.25;2.55;;;;;;;19.41;100.00;102204.31;6254849;28;20098;-73
2023/06/24 09:21:24;;;;;;;5.13;3.03;;;;;;;19.56;100.00;102204.22;6253866;28;20350;-73
2023/06/24 09:24:31;;;;;;;6.28;2.63;;;;;;;19.57;100.00;102205.91;6254664;28;20049;-73
2023/06/24 09:27:33;;;;;;;4.65;3.25;;;;;;;19.56;100.00;102198.88;6254482;28;20053;-73
2023/06/24 09:30:34;;;;;;;3.72;2.70;;;;;;;19.74;100.00;102192.31;6253865;28;20136;-72
2023/06/24 09:33:36;;;;;;;5.60;3.40;;;;;;;19.73;100.00;102193.28;6264072;28;20053;-73
2023/06/24 09:36:42;;;;;;;6.82;3.15;;;;;;;19.90;100.00;102182.31;6278998;28;20331;-73
2023/06/24 09:39:45;;;;;;;5.63;3.50;;;;;;;19.96;100.00;102184.53;6267743;28;20350;-72
2023/06/24 09:42:51;;;;;;;5.32;3.20;;;;;;;20.01;100.00;102182.41;6253322;28;20334;-72
2023/06/24 09:45:53;;;;;;;4.45;2.60;;;;;;;20.00;100.00;102182.50;6254297;28;20045;-73
2023/06/24 09:48:54;;;;;;;5.13;2.85;;;;;;;19.99;100.00;102176.31;6254167;28;20057;-73
2023/06/24 09:51:57;;;;;;;6.93;2.97;;;;;;;19.99;100.00;102175.47;6253397;28;20049;-73
2023/06/24 09:55:02;;;;;;;4.03;2.78;;;;;;;20.02;100.00;102175.25;6253828;28;20049;-73
2023/06/24 09:58:04;;;;;;;7.40;2.28;;;;;;;20.14;100.00;102169.03;6254109;28;20164;-72
2023/06/24 10:01:06;;;;;;;4.68;2.33;;;;;;;20.15;100.00;102167.22;6253028;28;20045;-73
2023/06/24 10:04:09;;;;;;;4.38;2.47;;;;;;;20.38;100.00;102165.56;6253403;28;20053;-73
2023/06/24 10:07:11;;;;;;;3.72;2.53;;;;;;;20.49;100.00;102157.69;6253597;28;20049;-73
2023/06/24 10:10:14;;;;;;;3.72;2.38;;;;;;;20.75;100.00;102158.41;6252326;28;20446;-73
2023/06/24 10:13:16;;;;;;;4.45;2.70;;;;;;;20.81;100.00;102154.47;6252862;28;20062;-73
2023/06/24 10:16:17;;;;;;;3.22;1.92;;;;;;;20.86;100.00;102154.97;6253586;28;20049;-73
2023/06/24 10:19:21;;;;;;;3.80;2.67;;;;;;;20.93;100.00;102149.03;6253424;28;20065;-73
2023/06/24 10:22:24;;;;;;;5.38;2.95;;;;;;;21.06;100.00;102153.47;6244607;28;20056;-73
2023/06/24 10:25:36;;;;;;;6.25;2.42;;;;;;;21.14;100.00;102148.41;6253412;28;20076;-73
2023/06/24 10:29:09;;;;;;;4.60;2.20;;;;;;;21.26;100.00;102145.66;6246873;28;20076;-73
2023/06/24 10:32:10;;;;;;;4.90;2.30;;;;;;;21.34;100.00;102131.72;6252336;28;20135;-73
2023/06/24 10:35:23;;;;;;;2.10;1.90;;;;;;;21.26;100.00;102129.63;6252807;28;20354;-72
2023/06/24 10:38:25;;;;;;;3.10;2.15;;;;;;;21.20;100.00;102127.38;6252961;28;20131;-73
2023/06/24 10:41:27;;;;;;;5.88;2.83;;;;;;;21.39;100.00;102126.88;6252320;28;20457;-73
2023/06/24 10:44:29;;;;;;;2.63;2.00;;;;;;;21.58;100.00;102120.09;6252474;28;20045;-73
2023/06/24 10:47:31;;;;;;;4.30;2.00;;;;;;;21.80;100.00;102120.09;6253211;28;20143;-73
2023/06/24 10:50:32;;;;;;;6.95;2.25;;;;;;;21.91;100.00;102108.56;6251912;28;20135;-73
2023/06/24 10:53:34;;;;;;;3.15;2.30;;;;;;;21.89;100.00;102108.69;6252365;28;20049;-73
2023/06/24 10:56:38;;;;;;;5.53;2.35;;;;;;;21.94;100.00;102102.97;6252219;28;20046;-72
2023/06/24 10:59:41;;;;;;;3.25;2.17;;;;;;;21.95;100.00;102110.03;6252385;28;20045;-75
2023/06/24 11:02:42;;;;;;;2.65;2.03;;;;;;;22.01;100.00;102105.00;6251713;28;20053;-74
2023/06/24 11:05:45;;;;;;;6.25;2.53;;;;;;;22.10;100.00;102097.22;6252175;28;20136;-74
2023/06/24 11:08:47;;;;;;;3.40;1.85;;;;;;;22.06;100.00;102096.63;6252252;28;20052;-74
2023/06/24 11:11:50;;;;;;;2.95;1.90;;;;;;;22.10;100.00;102098.06;6251401;28;20442;-74
2023/06/24 11:14:51;;;;;;;6.30;2.60;;;;;;;22.29;100.00;102095.63;6252110;28;20052;-75
2023/06/24 11:17:53;;;;;;;5.18;2.55;;;;;;;22.36;100.00;102100.50;6251862;28;20056;-75
2023/06/24 11:20:54;;;;;;;4.13;2.90;;;;;;;22.58;100.00;102092.41;6251209;28;20423;-74
2023/06/24 11:23:55;;;;;;;4.85;3.03;;;;;;;22.67;100.00;102088.09;6251763;28;20050;-74
2023/06/24 11:26:58;;;;;;;4.45;2.88;;;;;;;22.75;100.00;102088.28;6264362;28;20274;-73
2023/06/24 11:30:02;;;;;;;4.75;2.78;;;;;;;22.84;100.00;102092.03;6276565;28;20051;-74
2023/06/24 11:33:04;;;;;;;4.70;2.75;;;;;;;22.96;100.00;102097.25;6275708;28;20334;-74
2023/06/24 11:36:10;;;;;;;4.47;2.45;;;;;;;23.04;100.00;102100.16;6276247;28;20441;-73
2023/06/24 11:39:21;;;;;;;7.65;3.03;;;;;;;23.18;100.00;102090.94;6276039;28;20052;-73
2023/06/24 11:42:24;;;;;;;5.65;2.85;;;;;;;23.35;100.00;102094.84;6275597;28;20074;-73
2023/06/24 11:45:26;;;;;;;5.82;2.85;;;;;;;23.55;100.00;102096.66;6258958;28;20049;-74
2023/06/24 11:48:28;;;;;;;4.88;2.40;;;;;;;23.57;100.00;102088.44;6251190;28;20377;-74
2023/06/24 11:51:30;;;;;;;5.05;3.17;;;;;;;23.40;100.00;102092.63;6250423;28;20041;-74
2023/06/24 11:54:42;;;;;;;7.47;2.55;;;;;;;23.54;100.00;102081.53;6251329;28;20076;-73
2023/06/24 11:57:56;;;;;;;5.65;2.72;;;;;;;24.03;100.00;102085.28;6250929;28;20369;-74
2023/06/24 12:00:57;;;;;;;5.15;2.88;;;;;;;24.24;100.00;102077.13;6250496;28;20054;-74
2023/06/24 12:04:00;;;;;;;4.03;2.45;;;;;;;24.41;100.00;102080.16;6250820;28;20053;-73
2023/06/24 12:07:02;;;;;;;3.55;2.50;;;;;;;24.50;100.00;102065.88;6251039;28;20461;-74
2023/06/24 12:10:04;;;;;;;4.45;2.95;;;;;;;24.89;100.00;102073.94;6250611;28;20079;-74
2023/06/24 12:13:08;;;;;;;6.32;2.95;;;;;;;24.89;95.59;102068.56;6250232;28;20073;-74
2023/06/24 12:16:09;;;;;;;4.60;2.67;;;;;;;24.39;97.11;102066.88;6250636;28;20457;-73
2023/06/24 12:19:11;;;;;;;3.78;2.20;;;;;;;24.44;98.11;102067.31;6250790;28;20045;-73
2023/06/24 12:22:12;;;;;;;3.92;2.67;;;;;;;24.84;98.48;102065.44;6249906;28;20407;-73
2023/06/24 12:25:14;;;;;;;4.07;2.25;;;;;;;24.89;100.00;102053.28;6250100;28;20048;-73
2023/06/24 12:28:17;;;;;;;3.45;2.50;;;;;;;24.80;92.79;102060.38;6250598;28;20084;-76
2023/06/24 12:31:18;;;;;;;5.97;2.38;;;;;;;24.93;95.33;102060.06;6249328;28;20072;-73
2023/06/24 12:34:20;;;;;;;4.55;2.42;;;;;;;25.20;99.75;102061.19;6250093;28;20045;-74
2023/06/24 12:37:22;;;;;;;3.80;2.45;;;;;;;25.33;89.51;102060.88;6250581;28;20060;-73
2023/06/24 12:40:24;;;;;;;6.75;2.50;;;;;;;25.23;90.06;102055.50;6241688;28;20422;-77
2023/06/24 12:43:26;;;;;;;5.22;2.55;;;;;;;25.36;93.11;102049.81;6250065;28;20057;-73
2023/06/24 12:46:28;;;;;;;2.60;2.00;;;;;;;25.53;98.80;102054.44;6250360;28;20060;-74
2023/06/24 12:49:29;;;;;;;5.10;2.33;;;;;;;25.67;84.71;102047.72;6250183;28;20049;-73
2023/06/24 12:52:30;;;;;;;4.28;2.47;;;;;;;25.83;84.75;102047.09;6249747;28;20056;-73
2023/06/24 12:55:32;;;;;;;3.85;2.38;;;;;;;25.95;84.69;102053.97;6251063;28;20049;-73
2023/06/24 12:58:34;;;;;;;5.00;2.20;;;;;;;25.85;84.74;102043.25;6274751;28;20041;-74
2023/06/24 13:01:36;;;;;;;3.35;2.42;;;;;;;26.14;85.45;102043.06;6274303;28;20059;-74
2023/06/24 13:04:37;;;;;;;4.68;2.53;;;;;;;26.45;80.35;102048.13;6269681;28;20071;-74
2023/06/24 13:07:39;;;;;;;2.35;1.70;;;;;;;26.60;88.51;102045.75;6255985;28;20053;-74
2023/06/24 13:10:41;;;;;;;2.80;1.95;;;;;;;26.73;82.74;102046.19;6249270;28;20072;-73
2023/06/24 13:13:44;;;;;;;2.22;1.90;;;;;;;26.73;81.80;102047.03;6249781;28;20397;-75
2023/06/24 13:16:45;;;;;;;3.67;2.25;;;;;;;26.58;80.98;102037.81;6250025;28;20064;-73
2023/06/24 13:19:47;;;;;;;2.75;2.05;;;;;;;26.62;84.01;102033.81;6250236;28;20045;-73
2023/06/24 13:22:48;;;;;;;3.20;1.98;;;;;;;26.58;78.40;102037.81;6249301;28;20060;-73
2023/06/24 13:25:49;;;;;;;3.72;1.92;;;;;;;26.56;79.62;102040.66;6249844;28;20117;-73
2023/06/24 13:28:52;;;;;;;8.85;3.70;;;;;;;26.61;78.87;102034.78;6249546;28;20049;-75
2023/06/24 13:31:54;;;;;;;4.50;2.10;;;;;;;26.71;77.45;102038.28;6249145;28;20037;-73
2023/06/24 13:34:55;;;;;;;3.67;2.10;;;;;;;26.50;61.04;102029.66;6250014;28;20050;-73
2023/06/24 13:37:58;;;;;;;3.75;2.30;;;;;;;26.41;63.59;102030.53;6249699;28;20049;-73
2023/06/24 13:40:59;;;;;;;4.18;2.05;;;;;;;26.23;64.35;102028.69;6249182;28;20103;-73
2023/06/24 13:44:03;;;;;;;3.95;2.20;;;;;;;26.09;65.17;102028.38;6251647;28;20050;-74
2023/06/24 13:47:05;;;;;;;2.88;2.05;;;;;;;26.04;65.14;102028.81;6254224;28;20453;-73
2023/06/24 13:50:07;;;;;;;2.83;2.08;;;;;;;25.77;69.38;102024.31;6253818;28;20358;-73
2023/06/24 13:53:08;;;;;;;3.03;2.20;;;;;;;25.70;77.46;102024.00;6253406;28;20057;-73
2023/06/24 13:56:10;;;;;;;6.70;2.40;;;;;;;26.06;69.28;102014.19;6253613;28;20045;-73
2023/06/24 13:59:12;;;;;;;2.75;1.83;;;;;;;26.62;74.34;102019.47;6254024;28;20049;-73